createdAt,value
2019-02-19T00:01:57.843Z,14.57
2019-02-19T00:04:38.395Z,15.93
2019-02-19T00:07:18.824Z,16.37
2019-02-19T00:09:59.239Z,15.63
2019-02-19T00:12:40.081Z,14.83
2019-02-19T00:15:20.925Z,16.47
2019-02-19T00:18:01.596Z,16.23
2019-02-19T00:20:41.844Z,16.00
2019-02-19T00:23:22.052Z,15.67
2019-02-19T00:26:02.759Z,15.13
2019-02-19T00:28:43.048Z,15.63
2019-02-19T00:31:23.799Z,15.03
2019-02-19T00:34:05.044Z,15.40
2019-02-19T00:36:45.408Z,15.53
2019-02-19T00:39:26.312Z,14.80
2019-02-19T00:42:06.890Z,15.57
2019-02-19T00:44:47.425Z,16.07
2019-02-19T00:47:27.853Z,15.30
2019-02-19T00:50:08.724Z,15.23
2019-02-19T00:52:49.452Z,15.50
2019-02-19T00:55:30.462Z,14.63
2019-02-19T00:57:58.872Z,15.90
2019-02-19T01:00:46.927Z,15.90
2019-02-19T01:03:34.674Z,15.13
2019-02-19T01:06:22.800Z,15.20
2019-02-19T01:09:04.853Z,15.07
2019-02-19T01:11:45.865Z,15.10
2019-02-19T01:14:27.109Z,14.77
2019-02-19T01:17:07.815Z,15.53
2019-02-19T01:19:48.353Z,14.67
2019-02-19T01:22:28.876Z,14.97
2019-02-19T01:25:09.274Z,14.33
2019-02-19T01:27:50.276Z,15.60
2019-02-19T01:30:31.036Z,14.47
2019-02-19T01:33:11.856Z,15.03
2019-02-19T01:35:52.713Z,15.83
2019-02-19T01:38:33.342Z,14.27
2019-02-19T01:41:13.922Z,14.70
2019-02-19T01:43:54.604Z,15.33
2019-02-19T01:46:35.236Z,15.37
2019-02-19T01:49:15.704Z,14.40
2019-02-19T01:51:56.427Z,15.73
2019-02-19T01:54:37.328Z,15.33
2019-02-19T01:57:18.229Z,14.50
2019-02-19T01:59:59.209Z,15.87
2019-02-19T02:02:40.130Z,13.90
2019-02-19T02:05:20.657Z,15.77
2019-02-19T02:08:01.303Z,14.80
2019-02-19T02:10:41.921Z,15.03
2019-02-19T02:13:23.144Z,14.53
2019-02-19T02:16:03.524Z,15.47
2019-02-19T02:18:44.017Z,15.80
2019-02-19T02:21:25.020Z,14.90
2019-02-19T02:24:05.589Z,15.27
2019-02-19T02:26:46.459Z,15.33
2019-02-19T02:29:26.992Z,15.33
2019-02-19T02:32:07.569Z,15.83
2019-02-19T02:34:48.300Z,15.33
2019-02-19T02:37:28.892Z,15.63
2019-02-19T02:40:09.887Z,16.13
2019-02-19T02:42:51.112Z,14.13
2019-02-19T02:45:31.798Z,15.47
2019-02-19T02:48:12.396Z,15.60
2019-02-19T02:50:53.068Z,14.97
2019-02-19T02:53:34.007Z,15.27
2019-02-19T02:56:14.469Z,14.77
2019-02-19T02:58:55.272Z,16.27
2019-02-19T03:01:35.723Z,15.17
2019-02-19T03:04:16.493Z,15.87
2019-02-19T03:07:01.929Z,17.50
2019-02-19T03:09:42.945Z,17.43
2019-02-19T03:12:23.913Z,18.87
2019-02-19T03:15:04.838Z,18.23
2019-02-19T03:17:45.898Z,19.17
2019-02-19T03:20:26.755Z,19.93
2019-02-19T03:23:07.428Z,19.43
2019-02-19T03:25:48.163Z,20.90
2019-02-19T03:28:29.116Z,20.97
2019-02-19T03:31:09.706Z,21.20
2019-02-19T03:33:50.290Z,22.03
2019-02-19T03:36:31.315Z,23.70
2019-02-19T03:39:12.474Z,22.67
2019-02-19T03:41:53.484Z,23.33
2019-02-19T03:44:34.093Z,22.87
2019-02-19T03:47:14.657Z,23.70
2019-02-19T03:49:55.388Z,23.57
2019-02-19T03:52:36.020Z,23.37
2019-02-19T03:55:16.666Z,23.20
2019-02-19T03:57:57.629Z,21.73
2019-02-19T04:00:38.372Z,22.90
2019-02-19T04:03:19.540Z,23.03
2019-02-19T04:06:00.100Z,23.23
2019-02-19T04:08:40.800Z,22.30
2019-02-19T04:11:21.620Z,23.83
2019-02-19T04:14:02.329Z,21.80
2019-02-19T04:16:43.309Z,22.90
2019-02-19T04:19:24.530Z,23.53
2019-02-19T04:22:05.422Z,23.23
2019-02-19T04:24:46.176Z,23.37
2019-02-19T04:27:27.130Z,22.80
2019-02-19T04:30:08.433Z,22.90
2019-02-19T04:32:49.229Z,22.93
2019-02-19T04:35:29.629Z,22.50
2019-02-19T04:38:10.478Z,22.37
2019-02-19T04:40:51.072Z,22.37
2019-02-19T04:43:31.532Z,22.10
2019-02-19T04:46:12.421Z,23.17
2019-02-19T04:48:52.895Z,21.70
2019-02-19T04:51:33.812Z,22.77
2019-02-19T04:54:14.445Z,22.70
2019-02-19T04:56:55.321Z,23.37
2019-02-19T04:59:35.888Z,24.93
2019-02-19T05:02:17.137Z,23.73
2019-02-19T05:04:58.282Z,24.47
2019-02-19T05:07:38.713Z,23.63
2019-02-19T05:10:19.316Z,24.47
2019-02-19T05:13:00.188Z,25.30
2019-02-19T05:15:40.778Z,24.70
2019-02-19T05:18:21.365Z,24.47
2019-02-19T05:21:02.160Z,25.37
2019-02-19T05:23:42.905Z,25.40
2019-02-19T05:26:23.596Z,24.10
2019-02-19T05:29:04.228Z,24.47
2019-02-19T05:31:44.836Z,24.60
2019-02-19T05:34:25.492Z,25.47
2019-02-19T05:37:05.950Z,25.77
2019-02-19T05:39:46.827Z,24.33
2019-02-19T05:42:27.435Z,23.77
2019-02-19T05:45:08.344Z,24.93
2019-02-19T05:47:48.711Z,24.77
2019-02-19T05:50:29.689Z,23.53
2019-02-19T05:53:10.266Z,22.80
2019-02-19T05:55:51.150Z,22.93
2019-02-19T05:58:31.978Z,23.57
2019-02-19T06:01:13.020Z,23.47
2019-02-19T06:03:53.657Z,22.93
2019-02-19T06:06:34.609Z,22.03
2019-02-19T06:09:15.752Z,21.63
2019-02-19T06:11:44.166Z,22.27
2019-02-19T06:14:31.929Z,21.13
2019-02-19T06:17:19.670Z,21.97
2019-02-19T06:20:08.012Z,21.77
2019-02-19T06:22:55.769Z,22.77
2019-02-19T06:25:43.522Z,21.87
2019-02-19T06:28:31.518Z,22.63
2019-02-19T06:31:19.263Z,20.77
2019-02-19T06:34:07.036Z,20.40
2019-02-19T06:36:54.802Z,21.73
2019-02-19T06:39:42.569Z,22.43
2019-02-19T06:42:30.340Z,21.00
2019-02-19T06:45:18.080Z,21.13
2019-02-19T06:48:05.848Z,21.33
2019-02-19T06:50:53.597Z,21.03
2019-02-19T06:53:41.351Z,21.83
2019-02-19T06:56:29.339Z,21.43
2019-02-19T06:59:17.109Z,21.40
2019-02-19T07:05:32.565Z,21.40
2019-02-19T07:08:20.325Z,22.00
2019-02-19T07:11:08.080Z,21.67
2019-02-19T07:13:49.121Z,22.33
2019-02-19T07:16:30.333Z,20.33
2019-02-19T07:19:10.933Z,23.30
2019-02-19T07:21:51.954Z,24.33
2019-02-19T07:24:32.222Z,25.37
2019-02-19T07:27:13.170Z,24.03
2019-02-19T07:29:54.236Z,24.53
2019-02-19T07:32:35.047Z,23.73
2019-02-19T07:35:15.958Z,22.63
2019-02-19T07:37:56.780Z,21.93
2019-02-19T07:40:37.501Z,22.00
2019-02-19T07:43:18.147Z,21.50
2019-02-19T07:45:58.871Z,21.50
2019-02-19T07:48:39.841Z,20.67
2019-02-19T07:51:20.592Z,20.07
2019-02-19T07:54:01.444Z,20.27
2019-02-19T07:56:42.606Z,21.10
2019-02-19T07:59:23.693Z,19.17
2019-02-19T08:02:04.692Z,19.43
2019-02-19T08:04:45.728Z,19.17
2019-02-19T08:07:26.193Z,18.13
2019-02-19T08:10:06.893Z,18.33
2019-02-19T08:12:47.685Z,18.27
2019-02-19T08:15:28.669Z,17.63
2019-02-19T08:18:09.197Z,16.33
2019-02-19T08:20:49.712Z,17.57
2019-02-19T08:23:30.801Z,17.43
2019-02-19T08:26:11.597Z,17.47
2019-02-19T08:28:52.545Z,18.13
2019-02-19T08:31:33.306Z,16.80
2019-02-19T08:34:13.873Z,17.50
2019-02-19T08:36:54.789Z,18.53
2019-02-19T08:39:35.444Z,19.03
2019-02-19T08:42:16.109Z,16.70
2019-02-19T08:44:56.826Z,17.60
2019-02-19T08:47:42.794Z,17.63
2019-02-19T08:50:20.184Z,12.40
2019-02-19T08:53:01.073Z,18.47
2019-02-19T08:55:42.115Z,17.77
2019-02-19T08:58:22.725Z,17.53
2019-02-19T09:01:03.829Z,16.47
2019-02-19T09:03:44.788Z,16.10
2019-02-19T09:06:25.455Z,15.73
2019-02-19T09:09:06.193Z,15.67
2019-02-19T09:11:47.081Z,15.87
2019-02-19T09:14:27.445Z,15.60
2019-02-19T09:17:08.178Z,15.90
2019-02-19T09:19:48.762Z,15.07
2019-02-19T09:22:29.686Z,14.43
2019-02-19T09:25:10.750Z,12.97
2019-02-19T09:27:51.332Z,13.90
2019-02-19T09:30:32.170Z,14.40
2019-02-19T09:33:13.241Z,13.90
2019-02-19T09:35:54.268Z,13.67
2019-02-19T09:38:35.080Z,15.43
2019-02-19T09:41:16.069Z,14.03
2019-02-19T09:43:56.741Z,13.87
2019-02-19T09:46:37.556Z,13.17
2019-02-19T09:49:18.329Z,13.53
2019-02-19T09:51:59.128Z,13.03
2019-02-19T09:54:39.961Z,13.67
2019-02-19T09:57:20.508Z,12.77
2019-02-19T10:00:01.289Z,12.07
2019-02-19T10:02:43.838Z,12.90
2019-02-19T10:05:25.069Z,11.87
2019-02-19T10:08:05.694Z,13.80
2019-02-19T10:10:46.336Z,13.70
2019-02-19T10:13:27.184Z,12.70
2019-02-19T10:16:08.164Z,11.47
2019-02-19T10:18:49.089Z,12.37
2019-02-19T10:21:29.789Z,12.97
2019-02-19T10:23:58.236Z,12.30
2019-02-19T10:26:45.984Z,12.63
2019-02-19T10:29:33.749Z,11.60
2019-02-19T10:32:21.499Z,12.13
2019-02-19T10:35:10.142Z,11.87
2019-02-19T10:37:57.889Z,13.07
2019-02-19T10:40:45.654Z,11.67
2019-02-19T10:43:33.391Z,12.37
2019-02-19T10:46:21.156Z,11.60
2019-02-19T10:49:08.904Z,13.10
2019-02-19T10:51:56.666Z,11.50
2019-02-19T10:54:44.411Z,13.27
2019-02-19T10:57:32.179Z,14.13
2019-02-19T11:03:28.821Z,13.77
2019-02-19T11:06:16.572Z,13.93
2019-02-19T11:09:05.072Z,14.70
2019-02-19T11:11:52.833Z,14.80
2019-02-19T11:14:40.581Z,15.70
2019-02-19T11:17:28.331Z,15.37
2019-02-19T11:20:09.333Z,14.93
2019-02-19T11:22:50.054Z,10.97
2019-02-19T11:25:31.075Z,15.70
2019-02-19T11:28:11.724Z,14.80
2019-02-19T11:30:52.616Z,14.17
2019-02-19T11:33:33.713Z,13.50
2019-02-19T11:36:14.280Z,12.23
2019-02-19T11:38:55.033Z,10.93
2019-02-19T11:41:36.032Z,12.00
2019-02-19T11:44:16.872Z,10.43
2019-02-19T11:46:57.640Z,10.33
2019-02-19T11:49:38.215Z,10.10
2019-02-19T11:52:19.176Z,10.40
2019-02-19T11:55:00.378Z,11.17
2019-02-19T11:57:41.217Z,11.77
2019-02-19T12:03:16.348Z,10.43
2019-02-19T12:05:57.429Z,9.87
2019-02-19T12:08:39.261Z,9.93
2019-02-19T12:11:19.877Z,10.27
2019-02-19T12:14:00.944Z,9.97
2019-02-19T12:16:41.858Z,10.40
2019-02-19T12:19:22.340Z,10.53
2019-02-19T12:22:03.233Z,11.33
2019-02-19T12:24:44.076Z,10.77
2019-02-19T12:27:24.769Z,11.50
2019-02-19T12:30:05.296Z,10.83
2019-02-19T12:32:46.184Z,10.23
2019-02-19T12:35:27.204Z,10.43
2019-02-19T12:38:08.232Z,9.87
2019-02-19T12:40:49.211Z,9.00
2019-02-19T12:43:29.832Z,8.70
2019-02-19T12:46:10.692Z,8.80
2019-02-19T12:48:54.724Z,8.13
2019-02-19T12:51:34.209Z,9.20
2019-02-19T12:54:15.120Z,7.97
2019-02-19T12:56:55.801Z,8.00
2019-02-19T12:59:36.580Z,7.83
2019-02-19T13:02:17.288Z,9.00
2019-02-19T13:04:58.265Z,8.47
2019-02-19T13:07:39.103Z,9.10
2019-02-19T13:10:19.876Z,9.37
2019-02-19T13:13:01.013Z,8.23
2019-02-19T13:15:41.283Z,8.37
2019-02-19T13:18:22.049Z,8.87
2019-02-19T13:21:03.104Z,9.17
2019-02-19T13:23:44.151Z,8.70
2019-02-19T13:26:24.693Z,9.43
2019-02-19T13:29:05.405Z,9.60
2019-02-19T13:31:45.952Z,9.57
2019-02-19T13:34:26.772Z,10.53
2019-02-19T13:37:07.819Z,9.07
2019-02-19T13:39:48.041Z,9.40
2019-02-19T13:42:28.419Z,9.10
2019-02-19T13:45:08.860Z,8.60
2019-02-19T13:47:37.292Z,8.03
2019-02-19T13:50:25.827Z,10.03
2019-02-19T13:53:32.803Z,8.80
2019-02-19T13:56:20.564Z,7.73
2019-02-19T13:59:08.317Z,7.43
2019-02-19T14:01:56.076Z,8.43
2019-02-19T14:04:43.860Z,9.20
2019-02-19T14:07:31.605Z,8.37
2019-02-19T14:10:19.394Z,8.47
2019-02-19T14:13:07.119Z,9.00
2019-02-19T14:16:14.088Z,8.93
2019-02-19T14:18:59.302Z,7.77
2019-02-19T14:21:44.606Z,7.93
2019-02-19T14:24:26.453Z,7.20
2019-02-19T14:27:26.557Z,8.47
2019-02-19T14:30:11.479Z,8.07
2019-02-19T14:36:05.137Z,7.60
2019-02-19T14:41:54.324Z,5.83
2019-02-19T14:44:39.454Z,4.87
2019-02-19T14:50:33.272Z,5.67
2019-02-19T14:53:17.900Z,5.63
2019-02-19T14:56:18.124Z,6.77
2019-02-19T14:59:02.621Z,6.83
2019-02-19T15:01:44.812Z,6.17
2019-02-19T15:07:22.268Z,4.77
2019-02-19T15:10:22.150Z,6.20
2019-02-19T15:13:04.084Z,7.37
2019-02-19T15:16:04.102Z,7.10
2019-02-19T15:19:04.265Z,6.50
2019-02-19T15:22:03.776Z,6.47
2019-02-19T15:27:40.937Z,3.87
2019-02-19T15:30:26.294Z,4.40
2019-02-19T15:33:26.635Z,3.63
2019-02-19T15:36:27.084Z,2.97
2019-02-19T15:39:12.101Z,3.43
2019-02-19T15:41:56.762Z,4.20
2019-02-19T15:44:42.484Z,5.00
2019-02-19T15:47:42.906Z,4.57
2019-02-19T15:50:43.138Z,5.80
2019-02-19T15:53:27.803Z,7.23
2019-02-19T15:56:28.046Z,6.00
2019-02-19T15:59:12.821Z,5.73
2019-02-19T16:01:55.541Z,7.07
2019-02-19T16:04:41.080Z,5.80
2019-02-19T16:07:23.117Z,5.60
2019-02-19T16:10:23.122Z,4.83
2019-02-19T16:13:23.007Z,5.10
2019-02-19T16:16:22.751Z,4.67
2019-02-19T16:19:08.481Z,4.70
2019-02-19T16:28:09.329Z,4.23
2019-02-19T16:31:09.120Z,4.30
2019-02-19T16:33:51.891Z,5.17
2019-02-19T16:36:33.668Z,4.57
2019-02-19T16:39:33.669Z,5.60
2019-02-19T16:42:33.594Z,5.10
2019-02-19T16:45:33.108Z,4.93
2019-02-19T16:51:27.924Z,4.50
2019-02-19T16:54:10.128Z,3.97
2019-02-19T16:56:52.494Z,5.20
2019-02-19T16:59:52.777Z,4.83
2019-02-19T17:02:37.545Z,4.67
2019-02-19T17:05:22.664Z,3.30
2019-02-19T17:08:04.849Z,5.97
2019-02-19T17:10:50.307Z,4.80
2019-02-19T17:13:32.745Z,5.37
2019-02-19T17:16:33.129Z,5.80
2019-02-19T17:19:32.933Z,6.17
2019-02-19T17:22:15.478Z,5.63
2019-02-19T17:28:09.497Z,5.23
2019-02-19T17:31:09.610Z,5.40
2019-02-19T17:34:09.805Z,5.60
2019-02-19T17:36:52.068Z,6.00
2019-02-19T17:39:39.660Z,5.80
2019-02-19T17:42:46.636Z,5.70
2019-02-19T17:45:53.600Z,6.00
2019-02-19T17:51:59.417Z,5.87
2019-02-19T17:55:06.351Z,6.13
2019-02-19T17:58:13.297Z,6.13
2019-02-19T18:01:20.247Z,6.37
2019-02-19T18:10:16.680Z,7.23
2019-02-19T18:13:23.633Z,6.70
2019-02-19T18:16:23.860Z,7.07
2019-02-19T18:19:04.656Z,6.63
2019-02-19T18:21:45.788Z,7.57
2019-02-19T18:24:26.336Z,5.17
2019-02-19T18:27:07.388Z,6.20
2019-02-19T18:29:48.398Z,7.13
2019-02-19T18:32:29.414Z,7.13
2019-02-19T18:35:09.672Z,6.27
2019-02-19T18:37:50.573Z,7.13
2019-02-19T18:40:31.432Z,6.80
2019-02-19T18:43:12.653Z,7.50
2019-02-19T18:45:53.437Z,7.27
2019-02-19T18:48:34.320Z,7.33
2019-02-19T18:51:15.085Z,7.80
2019-02-19T18:53:55.655Z,5.50
2019-02-19T18:56:36.579Z,7.77
2019-02-19T18:59:17.437Z,7.47
2019-02-19T19:01:58.328Z,5.57
2019-02-19T19:04:39.201Z,7.23
2019-02-19T19:07:20.333Z,6.80
2019-02-19T19:10:01.291Z,7.33
2019-02-19T19:12:41.860Z,7.20
2019-02-19T19:15:23.109Z,6.77
2019-02-19T19:18:03.800Z,6.33
2019-02-19T19:20:44.516Z,7.23
2019-02-19T19:23:25.166Z,7.13
2019-02-19T19:26:06.134Z,7.23
2019-02-19T19:28:46.667Z,7.10
2019-02-19T19:31:33.603Z,7.23
2019-02-19T19:34:10.081Z,7.37
2019-02-19T19:36:50.925Z,8.13
2019-02-19T19:39:31.969Z,7.10
2019-02-19T19:42:12.657Z,8.23
2019-02-19T19:44:53.511Z,6.63
2019-02-19T19:47:34.468Z,7.30
2019-02-19T19:50:15.261Z,7.03
2019-02-19T19:52:56.348Z,8.13
2019-02-19T19:55:37.142Z,7.67
2019-02-19T19:58:18.266Z,7.57
2019-02-19T20:00:58.729Z,5.10
2019-02-19T20:03:39.273Z,7.63
2019-02-19T20:06:20.042Z,7.53
2019-02-19T20:09:00.752Z,7.97
2019-02-19T20:11:41.636Z,7.00
2019-02-19T20:14:22.208Z,7.37
2019-02-19T20:17:03.131Z,7.77
2019-02-19T20:19:44.085Z,6.40
2019-02-19T20:22:24.548Z,6.67
2019-02-19T20:25:05.565Z,6.90
2019-02-19T20:27:46.377Z,6.17
2019-02-19T20:30:27.065Z,6.97
2019-02-19T20:33:07.741Z,6.40
2019-02-19T20:35:48.800Z,5.13
2019-02-19T20:38:29.564Z,6.10
2019-02-19T20:41:10.328Z,6.17
2019-02-19T20:43:50.900Z,6.33
2019-02-19T20:46:31.640Z,6.43
2019-02-19T20:49:12.510Z,7.40
2019-02-19T20:51:53.298Z,7.57
2019-02-19T20:54:34.307Z,7.30
2019-02-19T20:57:14.846Z,6.70
2019-02-19T20:59:55.406Z,7.20
2019-02-19T21:02:35.970Z,7.40
2019-02-19T21:05:16.799Z,7.00
2019-02-19T21:07:57.489Z,7.67
2019-02-19T21:10:38.219Z,5.37
2019-02-19T21:13:19.329Z,7.83
2019-02-19T21:15:59.912Z,7.57
2019-02-19T21:18:40.706Z,8.73
2019-02-19T21:21:21.357Z,7.47
2019-02-19T21:24:02.287Z,8.10
2019-02-19T21:26:42.905Z,7.03
2019-02-19T21:29:23.514Z,7.20
2019-02-19T21:32:04.449Z,8.10
2019-02-19T21:34:43.207Z,7.57
2019-02-19T21:37:30.968Z,7.00
2019-02-19T21:40:18.723Z,7.80
2019-02-19T21:43:06.457Z,6.43
2019-02-19T21:45:54.213Z,7.33
2019-02-19T21:48:48.036Z,7.37
2019-02-19T21:51:31.697Z,7.10
2019-02-19T21:54:19.449Z,7.90
2019-02-19T21:57:07.209Z,7.27
2019-02-19T21:59:54.961Z,6.50
2019-02-19T22:02:42.736Z,7.77
2019-02-19T22:05:30.481Z,7.60
2019-02-19T22:08:18.231Z,8.17
2019-02-19T22:10:58.376Z,6.27
2019-02-19T22:13:39.723Z,7.43
2019-02-19T22:16:20.139Z,7.33
2019-02-19T22:19:00.665Z,7.90
2019-02-19T22:21:43.062Z,8.23
2019-02-19T22:24:43.102Z,7.77
2019-02-19T22:27:23.429Z,8.17
2019-02-19T22:30:04.089Z,8.50
2019-02-19T22:32:44.629Z,8.50
2019-02-19T22:35:25.304Z,8.40
2019-02-19T22:38:06.085Z,8.57
2019-02-19T22:40:54.937Z,8.97
2019-02-19T22:43:29.577Z,9.53
2019-02-19T22:46:10.208Z,9.13
2019-02-19T22:48:50.860Z,10.50
2019-02-19T22:51:31.774Z,10.90
2019-02-19T22:56:55.188Z,10.90
2019-02-19T22:59:43.181Z,11.20
2019-02-19T23:02:31.244Z,11.00
2019-02-19T23:05:18.992Z,12.17
2019-02-19T23:08:07.019Z,10.53
2019-02-19T23:10:54.870Z,11.07
2019-02-19T23:13:42.611Z,10.37
2019-02-19T23:16:23.592Z,4.87
2019-02-19T23:19:04.217Z,10.73
2019-02-19T23:21:45.209Z,11.30
2019-02-19T23:24:25.687Z,11.37
2019-02-19T23:27:06.605Z,10.97
2019-02-19T23:29:47.314Z,10.70
2019-02-19T23:32:28.125Z,11.23
2019-02-19T23:38:02.745Z,11.27
2019-02-19T23:40:43.696Z,8.80
2019-02-19T23:43:24.660Z,10.00
2019-02-19T23:46:05.484Z,10.87
2019-02-19T23:48:45.922Z,11.30
2019-02-19T23:51:26.676Z,10.53
2019-02-19T23:54:07.348Z,11.30
2019-02-19T23:56:48.206Z,10.77
2019-02-19T23:59:28.996Z,11.07
